createdAt,value
2017-12-20T00:00:26.762Z,1019.9
2017-12-20T00:01:28.146Z,1019.9
2017-12-20T00:02:29.527Z,1019.8
2017-12-20T00:03:30.909Z,1019.8
2017-12-20T00:04:32.297Z,1019.8
2017-12-20T00:05:33.678Z,1019.8
2017-12-20T00:06:35.064Z,1019.7
2017-12-20T00:07:36.502Z,1019.7
2017-12-20T00:08:37.828Z,1019.7
2017-12-20T00:09:39.213Z,1019.6
2017-12-20T00:10:40.597Z,1019.6
2017-12-20T00:11:41.982Z,1019.7
2017-12-20T00:12:43.369Z,1019.6
2017-12-20T00:13:44.760Z,1019.6
2017-12-20T00:14:46.143Z,1019.6
2017-12-20T00:15:47.529Z,1019.6
2017-12-20T00:16:48.913Z,1019.6
2017-12-20T00:17:50.298Z,1019.6
2017-12-20T00:18:51.735Z,1019.6
2017-12-20T00:19:53.169Z,1019.6
2017-12-20T00:20:54.554Z,1019.6
2017-12-20T00:21:55.936Z,1019.6
2017-12-20T00:22:57.320Z,1019.6
2017-12-20T00:23:58.704Z,1019.5
2017-12-20T00:25:00.088Z,1019.6
2017-12-20T00:26:01.475Z,1019.6
2017-12-20T00:27:02.857Z,1019.6
2017-12-20T00:28:04.244Z,1019.6
2017-12-20T00:29:05.631Z,1019.6
2017-12-20T00:30:07.013Z,1019.5
2017-12-20T00:31:08.395Z,1019.6
2017-12-20T00:32:09.781Z,1019.5
2017-12-20T00:33:11.167Z,1019.5
2017-12-20T00:34:12.551Z,1019.5
2017-12-20T00:35:13.938Z,1019.5
2017-12-20T00:36:15.322Z,1019.5
2017-12-20T00:37:16.702Z,1019.5
2017-12-20T00:38:18.086Z,1019.6
2017-12-20T00:39:19.471Z,1019.6
2017-12-20T00:40:20.855Z,1019.6
2017-12-20T00:41:22.241Z,1019.6
2017-12-20T00:42:23.628Z,1019.6
2017-12-20T00:43:25.008Z,1019.6
2017-12-20T00:44:26.388Z,1019.7
2017-12-20T00:45:27.772Z,1019.6
2017-12-20T00:46:29.157Z,1019.7
2017-12-20T00:47:30.542Z,1019.7
2017-12-20T00:48:31.926Z,1019.7
2017-12-20T00:49:33.316Z,1019.7
2017-12-20T00:50:34.696Z,1019.7
2017-12-20T00:51:36.085Z,1019.7
2017-12-20T00:52:37.464Z,1019.8
2017-12-20T00:53:38.848Z,1019.7
2017-12-20T00:54:40.241Z,1019.7
2017-12-20T00:55:41.620Z,1019.8
2017-12-20T00:56:43.008Z,1019.8
2017-12-20T00:57:44.392Z,1019.8
2017-12-20T00:58:45.778Z,1019.8
2017-12-20T00:59:47.162Z,1019.8
2017-12-20T01:00:48.549Z,1019.8
2017-12-20T01:01:49.936Z,1019.8
2017-12-20T01:02:51.321Z,1019.7
2017-12-20T01:03:52.709Z,1019.7
2017-12-20T01:04:54.093Z,1019.8
2017-12-20T01:05:55.475Z,1019.8
2017-12-20T01:06:56.859Z,1019.8
2017-12-20T01:07:58.299Z,1019.8
2017-12-20T01:08:59.694Z,1019.8
2017-12-20T01:10:01.074Z,1019.8
2017-12-20T01:11:02.461Z,1019.8
2017-12-20T01:12:03.843Z,1019.8
2017-12-20T01:13:05.227Z,1019.8
2017-12-20T01:14:06.613Z,1019.8
2017-12-20T01:15:07.996Z,1019.8
2017-12-20T01:16:09.380Z,1019.8
2017-12-20T01:17:10.766Z,1019.9
2017-12-20T01:18:12.153Z,1019.9
2017-12-20T01:19:13.536Z,1019.9
2017-12-20T01:20:14.919Z,1019.9
2017-12-20T01:21:16.304Z,1019.8
2017-12-20T01:22:17.689Z,1019.8
2017-12-20T01:23:19.074Z,1019.9
2017-12-20T01:24:20.456Z,1019.8
2017-12-20T01:25:21.843Z,1019.8
2017-12-20T01:26:23.225Z,1019.8
2017-12-20T01:27:24.612Z,1019.8
2017-12-20T01:28:25.995Z,1019.8
2017-12-20T01:29:27.379Z,1019.8
2017-12-20T01:30:28.762Z,1019.8
2017-12-20T01:31:30.148Z,1019.8
2017-12-20T01:32:31.533Z,1019.8
2017-12-20T01:33:32.915Z,1019.8
2017-12-20T01:34:34.307Z,1019.8
2017-12-20T01:35:35.684Z,1019.8
2017-12-20T01:36:37.067Z,1019.7
2017-12-20T01:37:38.455Z,1019.8
2017-12-20T01:38:39.834Z,1019.8
2017-12-20T01:39:41.221Z,1019.8
2017-12-20T01:40:42.608Z,1019.8
2017-12-20T01:41:43.991Z,1019.8
2017-12-20T01:42:45.373Z,1019.8
2017-12-20T01:43:46.759Z,1019.8
2017-12-20T01:44:48.145Z,1019.9
2017-12-20T01:45:49.542Z,1019.8
2017-12-20T01:46:50.937Z,1019.9
2017-12-20T01:47:52.313Z,1019.8
2017-12-20T01:48:53.696Z,1019.8
2017-12-20T01:49:55.081Z,1019.9
2017-12-20T01:50:56.465Z,1019.8
2017-12-20T01:51:57.848Z,1019.8
2017-12-20T01:52:59.233Z,1019.8
2017-12-20T01:54:00.620Z,1019.8
2017-12-20T01:55:02.002Z,1019.8
2017-12-20T01:56:03.410Z,1019.8
2017-12-20T01:57:04.831Z,1019.8
2017-12-20T01:58:06.226Z,1019.8
2017-12-20T01:59:07.610Z,1019.7
2017-12-20T02:00:08.998Z,1019.7
2017-12-20T02:01:10.384Z,1019.7
2017-12-20T02:02:11.768Z,1019.7
2017-12-20T02:03:13.151Z,1019.6
2017-12-20T02:04:14.535Z,1019.6
2017-12-20T02:05:15.920Z,1019.6
2017-12-20T02:06:17.305Z,1019.6
2017-12-20T02:07:18.691Z,1019.5
2017-12-20T02:08:20.078Z,1019.5
2017-12-20T02:09:21.460Z,1019.6
2017-12-20T02:10:22.844Z,1019.6
2017-12-20T02:11:24.228Z,1019.6
2017-12-20T02:12:25.613Z,1019.6
2017-12-20T02:13:27.000Z,1019.7
2017-12-20T02:14:28.386Z,1019.6
2017-12-20T02:15:29.773Z,1019.7
2017-12-20T02:16:31.160Z,1019.6
2017-12-20T02:17:32.544Z,1019.6
2017-12-20T02:18:33.930Z,1019.6
2017-12-20T02:19:35.311Z,1019.6
2017-12-20T02:20:36.695Z,1019.6
2017-12-20T02:21:38.082Z,1019.6
2017-12-20T02:22:39.466Z,1019.6
2017-12-20T02:23:40.851Z,1019.6
2017-12-20T02:24:42.234Z,1019.7
2017-12-20T02:25:43.615Z,1019.7
2017-12-20T02:26:45.002Z,1019.7
2017-12-20T02:27:46.387Z,1019.7
2017-12-20T02:28:47.779Z,1019.7
2017-12-20T02:29:49.165Z,1019.7
2017-12-20T02:30:50.550Z,1019.6
2017-12-20T02:31:51.932Z,1019.6
2017-12-20T02:32:53.317Z,1019.6
2017-12-20T02:33:54.702Z,1019.6
2017-12-20T02:34:56.087Z,1019.5
2017-12-20T02:35:57.474Z,1019.5
2017-12-20T02:36:58.860Z,1019.5
2017-12-20T02:38:00.243Z,1019.4
2017-12-20T02:39:01.627Z,1019.4
2017-12-20T02:40:03.012Z,1019.4
2017-12-20T02:41:04.397Z,1019.4
2017-12-20T02:42:05.788Z,1019.4
2017-12-20T02:43:07.174Z,1019.4
2017-12-20T02:44:08.563Z,1019.3
2017-12-20T02:45:09.947Z,1019.3
2017-12-20T02:46:11.335Z,1019.3
2017-12-20T02:47:12.767Z,1019.3
2017-12-20T02:48:14.155Z,1019.3
2017-12-20T02:49:15.539Z,1019.4
2017-12-20T02:50:16.926Z,1019.3
2017-12-20T02:51:18.314Z,1019.3
2017-12-20T02:52:19.696Z,1019.3
2017-12-20T02:53:21.082Z,1019.3
2017-12-20T02:54:22.472Z,1019.3
2017-12-20T02:55:23.866Z,1019.3
2017-12-20T02:56:25.242Z,1019.3
2017-12-20T02:57:26.629Z,1019.3
2017-12-20T02:58:28.015Z,1019.3
2017-12-20T02:59:29.400Z,1019.3
2017-12-20T03:00:30.784Z,1019.3
2017-12-20T03:01:32.172Z,1019.3
2017-12-20T03:02:33.556Z,1019.3
2017-12-20T03:03:34.947Z,1019.3
2017-12-20T03:04:36.330Z,1019.3
2017-12-20T03:05:37.718Z,1019.3
2017-12-20T03:06:39.101Z,1019.2
2017-12-20T03:07:40.481Z,1019.2
2017-12-20T03:08:41.859Z,1019.2
2017-12-20T03:09:43.246Z,1019.2
2017-12-20T03:10:44.637Z,1019.1
2017-12-20T03:11:46.020Z,1019.1
2017-12-20T03:12:47.404Z,1019.1
2017-12-20T03:13:48.788Z,1019.1
2017-12-20T03:14:50.171Z,1019.1
2017-12-20T03:15:51.554Z,1019.2
2017-12-20T03:16:52.938Z,1019.3
2017-12-20T03:17:54.345Z,1019.3
2017-12-20T03:18:55.712Z,1019.3
2017-12-20T03:19:57.096Z,1019.3
2017-12-20T03:20:58.486Z,1019.2
2017-12-20T03:21:59.862Z,1019.2
2017-12-20T03:23:01.252Z,1019.3
2017-12-20T03:24:02.635Z,1019.3
2017-12-20T03:25:04.018Z,1019.3
2017-12-20T03:26:05.404Z,1019.3
2017-12-20T03:27:06.792Z,1019.4
2017-12-20T03:28:08.175Z,1019.3
2017-12-20T03:29:09.560Z,1019.3
2017-12-20T03:30:10.946Z,1019.3
2017-12-20T03:31:12.329Z,1019.3
2017-12-20T03:32:13.714Z,1019.3
2017-12-20T03:33:15.097Z,1019.4
2017-12-20T03:34:16.482Z,1019.3
2017-12-20T03:35:18.671Z,1019.3
2017-12-20T03:36:20.054Z,1019.4
2017-12-20T03:37:21.436Z,1019.4
2017-12-20T03:38:22.819Z,1019.5
2017-12-20T03:39:24.207Z,1019.4
2017-12-20T03:40:25.593Z,1019.5
2017-12-20T03:41:26.978Z,1019.4
2017-12-20T03:42:28.360Z,1019.4
2017-12-20T03:43:29.742Z,1019.4
2017-12-20T03:44:31.126Z,1019.3
2017-12-20T03:45:32.510Z,1019.4
2017-12-20T03:46:33.897Z,1019.4
2017-12-20T03:47:35.283Z,1019.4
2017-12-20T03:48:36.669Z,1019.4
2017-12-20T03:49:38.051Z,1019.4
2017-12-20T03:50:39.435Z,1019.5
2017-12-20T03:51:40.820Z,1019.4
2017-12-20T03:52:42.203Z,1019.4
2017-12-20T03:53:43.595Z,1019.4
2017-12-20T03:54:44.974Z,1019.4
2017-12-20T03:55:46.358Z,1019.4
2017-12-20T03:56:47.743Z,1019.4
2017-12-20T03:57:49.126Z,1019.4
2017-12-20T03:58:50.511Z,1019.4
2017-12-20T03:59:51.897Z,1019.4
2017-12-20T04:00:53.283Z,1019.4
2017-12-20T04:01:54.668Z,1019.3
2017-12-20T04:02:56.052Z,1019.3
2017-12-20T04:03:57.440Z,1019.2
2017-12-20T04:04:58.823Z,1019.3
2017-12-20T04:06:00.212Z,1019.2
2017-12-20T04:07:01.601Z,1019.2
2017-12-20T04:08:03.004Z,1019.2
2017-12-20T04:09:04.392Z,1019.2
2017-12-20T04:10:05.779Z,1019.2
2017-12-20T04:11:07.166Z,1019.2
2017-12-20T04:12:08.553Z,1019.2
2017-12-20T04:13:09.936Z,1019.2
2017-12-20T04:14:11.322Z,1019.2
2017-12-20T04:15:12.707Z,1019.2
2017-12-20T04:16:14.093Z,1019.2
2017-12-20T04:17:15.478Z,1019.1
2017-12-20T04:18:16.865Z,1019.1
2017-12-20T04:19:18.247Z,1019.1
2017-12-20T04:20:19.629Z,1019.2
2017-12-20T04:21:21.012Z,1019.1
2017-12-20T04:22:22.399Z,1019.2
2017-12-20T04:23:23.795Z,1019.2
2017-12-20T04:24:25.197Z,1019.2
2017-12-20T04:25:26.578Z,1019.1
2017-12-20T04:26:27.958Z,1019.1
2017-12-20T04:27:29.346Z,1019.1
2017-12-20T04:28:30.732Z,1019.1
2017-12-20T04:29:32.114Z,1019.1
2017-12-20T04:30:33.499Z,1019.1
2017-12-20T04:31:34.883Z,1019.1
2017-12-20T04:32:36.266Z,1019.1
2017-12-20T04:33:37.648Z,1019.1
2017-12-20T04:34:39.071Z,1019.1
2017-12-20T04:35:40.455Z,1019.2
2017-12-20T04:36:41.839Z,1019.2
2017-12-20T04:37:43.226Z,1019.2
2017-12-20T04:38:44.610Z,1019.3
2017-12-20T04:39:45.992Z,1019.3
2017-12-20T04:40:47.382Z,1019.2
2017-12-20T04:41:48.759Z,1019.2
2017-12-20T04:42:50.145Z,1019.3
2017-12-20T04:43:51.532Z,1019.3
2017-12-20T04:44:52.918Z,1019.3
2017-12-20T04:45:54.306Z,1019.3
2017-12-20T04:46:55.685Z,1019.2
2017-12-20T04:47:57.072Z,1019.3
2017-12-20T04:48:58.461Z,1019.3
2017-12-20T04:49:59.844Z,1019.3
2017-12-20T04:51:01.228Z,1019.3
2017-12-20T04:52:02.615Z,1019.3
2017-12-20T04:53:04.002Z,1019.3
2017-12-20T04:54:05.389Z,1019.3
2017-12-20T04:55:06.769Z,1019.2
2017-12-20T04:56:08.155Z,1019.3
2017-12-20T04:57:09.542Z,1019.2
2017-12-20T04:58:10.929Z,1019.2
2017-12-20T04:59:12.314Z,1019.3
2017-12-20T05:00:13.700Z,1019.2
2017-12-20T05:01:15.082Z,1019.1
2017-12-20T05:02:16.464Z,1019.1
2017-12-20T05:03:17.847Z,1019.2
2017-12-20T05:04:19.233Z,1019.2
2017-12-20T05:05:20.620Z,1019.2
2017-12-20T05:06:22.005Z,1019.3
2017-12-20T05:07:23.393Z,1019.3
2017-12-20T05:08:24.777Z,1019.3
2017-12-20T05:09:26.162Z,1019.3
2017-12-20T05:10:27.547Z,1019.3
2017-12-20T05:11:28.930Z,1019.3
2017-12-20T05:12:30.319Z,1019.3
2017-12-20T05:13:31.764Z,1019.3
2017-12-20T05:14:33.149Z,1019.3
2017-12-20T05:15:34.536Z,1019.3
2017-12-20T05:16:35.918Z,1019.4
2017-12-20T05:17:37.302Z,1019.4
2017-12-20T05:18:38.686Z,1019.4
2017-12-20T05:19:40.073Z,1019.3
2017-12-20T05:20:41.460Z,1019.4
2017-12-20T05:21:42.844Z,1019.4
2017-12-20T05:22:44.227Z,1019.3
2017-12-20T05:23:45.610Z,1019.2
2017-12-20T05:24:46.996Z,1019.3
2017-12-20T05:25:48.384Z,1019.3
2017-12-20T05:26:49.768Z,1019.3
2017-12-20T05:27:51.155Z,1019.3
2017-12-20T05:28:52.542Z,1019.3
2017-12-20T05:29:53.923Z,1019.3
2017-12-20T05:30:55.306Z,1019.3
2017-12-20T05:31:56.690Z,1019.3
2017-12-20T05:32:58.073Z,1019.3
2017-12-20T05:33:59.462Z,1019.3
2017-12-20T05:35:00.849Z,1019.3
2017-12-20T05:36:02.234Z,1019.4
2017-12-20T05:37:03.622Z,1019.4
2017-12-20T05:38:05.006Z,1019.4
2017-12-20T05:39:06.391Z,1019.4
2017-12-20T05:40:07.781Z,1019.4
2017-12-20T05:41:09.165Z,1019.5
2017-12-20T05:42:10.549Z,1019.5
2017-12-20T05:43:11.936Z,1019.5
2017-12-20T05:44:13.322Z,1019.5
2017-12-20T05:45:14.706Z,1019.5
2017-12-20T05:46:16.089Z,1019.5
2017-12-20T05:47:17.476Z,1019.4
2017-12-20T05:48:18.861Z,1019.4
2017-12-20T05:49:20.244Z,1019.4
2017-12-20T05:50:21.632Z,1019.4
2017-12-20T05:51:23.016Z,1019.4
2017-12-20T05:52:24.397Z,1019.4
2017-12-20T05:53:25.781Z,1019.4
2017-12-20T05:54:27.167Z,1019.5
2017-12-20T05:55:28.553Z,1019.4
2017-12-20T05:56:29.940Z,1019.5
2017-12-20T05:57:31.322Z,1019.4
2017-12-20T05:58:32.712Z,1019.4
2017-12-20T05:59:34.096Z,1019.4
2017-12-20T06:00:35.479Z,1019.5
2017-12-20T06:01:36.863Z,1019.5
2017-12-20T06:02:38.264Z,1019.5
2017-12-20T06:03:39.653Z,1019.5
2017-12-20T06:04:41.036Z,1019.6
2017-12-20T06:05:42.421Z,1019.6
2017-12-20T06:06:43.807Z,1019.6
2017-12-20T06:07:45.193Z,1019.6
2017-12-20T06:08:46.577Z,1019.6
2017-12-20T06:09:47.961Z,1019.6
2017-12-20T06:10:49.345Z,1019.6
2017-12-20T06:11:50.733Z,1019.7
2017-12-20T06:12:52.115Z,1019.6
2017-12-20T06:13:53.501Z,1019.7
2017-12-20T06:14:54.885Z,1019.7
2017-12-20T06:15:56.269Z,1019.7
2017-12-20T06:16:57.655Z,1019.7
2017-12-20T06:17:59.044Z,1019.7
2017-12-20T06:19:00.427Z,1019.7
2017-12-20T06:20:01.811Z,1019.7
2017-12-20T06:21:03.194Z,1019.7
2017-12-20T06:22:04.578Z,1019.8
2017-12-20T06:23:05.962Z,1019.7
2017-12-20T06:24:07.351Z,1019.7
2017-12-20T06:25:08.737Z,1019.7
2017-12-20T06:26:10.125Z,1019.7
2017-12-20T06:27:11.509Z,1019.6
2017-12-20T06:28:12.899Z,1019.6
2017-12-20T06:29:14.283Z,1019.6
2017-12-20T06:30:15.667Z,1019.6
2017-12-20T06:31:17.056Z,1019.6
2017-12-20T06:32:18.442Z,1019.7
2017-12-20T06:33:19.829Z,1019.7
2017-12-20T06:34:21.214Z,1019.7
2017-12-20T06:35:22.595Z,1019.6
2017-12-20T06:36:23.981Z,1019.7
2017-12-20T06:37:25.366Z,1019.7
2017-12-20T06:38:26.751Z,1019.6
2017-12-20T06:39:28.138Z,1019.6
2017-12-20T06:40:29.524Z,1019.6
2017-12-20T06:41:30.909Z,1019.7
2017-12-20T06:42:32.295Z,1019.7
2017-12-20T06:43:33.680Z,1019.6
2017-12-20T06:44:35.063Z,1019.7
2017-12-20T06:45:36.448Z,1019.7
2017-12-20T06:46:37.834Z,1019.7
2017-12-20T06:47:39.221Z,1019.7
2017-12-20T06:48:40.610Z,1019.7
2017-12-20T06:49:41.986Z,1019.7
2017-12-20T06:50:43.445Z,1019.7
2017-12-20T06:51:44.847Z,1019.7
2017-12-20T06:52:46.231Z,1019.7
2017-12-20T06:53:47.615Z,1019.7
2017-12-20T06:54:49.003Z,1019.6
2017-12-20T06:55:50.386Z,1019.7
2017-12-20T06:56:51.771Z,1019.7
2017-12-20T06:57:53.156Z,1019.7
2017-12-20T06:58:54.540Z,1019.6
2017-12-20T06:59:55.926Z,1019.7
2017-12-20T07:00:57.311Z,1019.7
2017-12-20T07:01:58.699Z,1019.7
2017-12-20T07:03:00.083Z,1019.7
2017-12-20T07:04:01.467Z,1019.7
2017-12-20T07:05:02.850Z,1019.7
2017-12-20T07:06:04.236Z,1019.7
2017-12-20T07:07:05.623Z,1019.7
2017-12-20T07:08:07.008Z,1019.7
2017-12-20T07:09:08.393Z,1019.7
2017-12-20T07:10:09.777Z,1019.7
2017-12-20T07:11:11.162Z,1019.6
2017-12-20T07:12:12.546Z,1019.7
2017-12-20T07:13:13.934Z,1019.7
2017-12-20T07:14:15.382Z,1019.7
2017-12-20T07:15:16.707Z,1019.7
2017-12-20T07:16:18.094Z,1019.7
2017-12-20T07:17:19.476Z,1019.7
2017-12-20T07:18:20.863Z,1019.7
2017-12-20T07:19:22.247Z,1019.7
2017-12-20T07:20:23.631Z,1019.8
2017-12-20T07:21:25.014Z,1019.7
2017-12-20T07:22:26.404Z,1019.8
2017-12-20T07:23:27.791Z,1019.8
2017-12-20T07:24:29.177Z,1019.7
2017-12-20T07:25:30.557Z,1019.8
2017-12-20T07:26:31.950Z,1019.7
2017-12-20T07:27:33.328Z,1019.8
2017-12-20T07:28:34.717Z,1019.7
2017-12-20T07:29:36.108Z,1019.7
2017-12-20T07:30:37.494Z,1019.7
2017-12-20T07:31:38.878Z,1019.7
2017-12-20T07:32:40.264Z,1019.7
2017-12-20T07:33:41.653Z,1019.7
2017-12-20T07:34:43.040Z,1019.7
2017-12-20T07:35:44.425Z,1019.7
2017-12-20T07:36:45.813Z,1019.7
2017-12-20T07:37:47.200Z,1019.7
2017-12-20T07:38:48.586Z,1019.7
2017-12-20T07:39:49.998Z,1019.7
2017-12-20T07:40:51.394Z,1019.7
2017-12-20T07:41:52.778Z,1019.6
2017-12-20T07:42:54.170Z,1019.7
2017-12-20T07:43:55.552Z,1019.6
2017-12-20T07:44:56.941Z,1019.6
2017-12-20T07:45:58.325Z,1019.7
2017-12-20T07:46:59.710Z,1019.7
2017-12-20T07:48:01.097Z,1019.7
2017-12-20T07:49:02.483Z,1019.7
2017-12-20T07:50:03.866Z,1019.6
2017-12-20T07:51:05.256Z,1019.6
2017-12-20T07:52:06.645Z,1019.6
2017-12-20T07:53:08.028Z,1019.7
2017-12-20T07:54:09.412Z,1019.7
2017-12-20T07:55:10.799Z,1019.7
2017-12-20T07:56:12.184Z,1019.7
2017-12-20T07:57:13.570Z,1019.7
2017-12-20T07:58:14.957Z,1019.7
2017-12-20T07:59:16.350Z,1019.7
2017-12-20T08:00:17.735Z,1019.7
2017-12-20T08:01:19.123Z,1019.8
2017-12-20T08:02:20.511Z,1019.7
2017-12-20T08:03:21.899Z,1019.7
2017-12-20T08:04:23.289Z,1019.8
2017-12-20T08:05:24.675Z,1019.8
2017-12-20T08:06:26.066Z,1019.8
2017-12-20T08:07:27.455Z,1019.8
2017-12-20T08:08:28.840Z,1019.8
2017-12-20T08:09:30.247Z,1019.8
2017-12-20T08:10:31.614Z,1019.8
2017-12-20T08:11:33.003Z,1019.8
2017-12-20T08:12:34.390Z,1019.7
2017-12-20T08:13:35.783Z,1019.8
2017-12-20T08:14:37.170Z,1019.8
2017-12-20T08:15:38.555Z,1019.8
2017-12-20T08:16:39.944Z,1019.9
2017-12-20T08:17:41.328Z,1019.8
2017-12-20T08:18:42.719Z,1019.8
2017-12-20T08:19:44.106Z,1019.8
2017-12-20T08:20:45.492Z,1019.8
2017-12-20T08:21:46.880Z,1019.8
2017-12-20T08:22:48.264Z,1019.8
2017-12-20T08:23:49.650Z,1019.8
2017-12-20T08:24:51.041Z,1019.8
2017-12-20T08:25:52.425Z,1019.8
2017-12-20T08:26:53.812Z,1019.8
2017-12-20T08:27:55.200Z,1019.8
2017-12-20T08:28:56.676Z,1019.8
2017-12-20T08:29:58.073Z,1019.8
2017-12-20T08:30:59.462Z,1019.8
2017-12-20T08:32:00.850Z,1019.8
2017-12-20T08:33:02.240Z,1019.8
2017-12-20T08:34:03.630Z,1019.8
2017-12-20T08:35:05.020Z,1019.8
2017-12-20T08:36:06.407Z,1019.8
2017-12-20T08:37:07.793Z,1019.8
2017-12-20T08:38:09.183Z,1019.8
2017-12-20T08:39:10.572Z,1019.9
2017-12-20T08:40:11.958Z,1019.9
2017-12-20T08:41:13.350Z,1019.9
2017-12-20T08:42:14.740Z,1020.0
2017-12-20T08:43:16.128Z,1020.0
2017-12-20T08:44:17.515Z,1020.0
2017-12-20T08:45:18.903Z,1019.9
2017-12-20T08:46:20.293Z,1020.0
2017-12-20T08:47:21.896Z,1020.0
2017-12-20T08:48:23.288Z,1020.1
2017-12-20T08:49:24.678Z,1020.1
2017-12-20T08:50:26.068Z,1020.1
2017-12-20T08:51:27.454Z,1020.1
2017-12-20T08:52:28.842Z,1020.2
2017-12-20T08:53:30.229Z,1020.2
2017-12-20T08:54:31.620Z,1020.2
2017-12-20T08:55:33.009Z,1020.2
2017-12-20T08:56:34.399Z,1020.2
2017-12-20T08:57:35.787Z,1020.3
2017-12-20T08:58:37.174Z,1020.2
2017-12-20T08:59:38.560Z,1020.3
2017-12-20T09:00:39.949Z,1020.3
2017-12-20T09:01:41.340Z,1020.3
2017-12-20T09:02:42.727Z,1020.3
2017-12-20T09:03:44.119Z,1020.3
2017-12-20T09:04:45.507Z,1020.3
2017-12-20T09:05:46.892Z,1020.4
2017-12-20T09:06:48.279Z,1020.3
2017-12-20T09:07:49.666Z,1020.4
2017-12-20T09:08:51.057Z,1020.4
2017-12-20T09:09:52.450Z,1020.4
2017-12-20T09:10:53.838Z,1020.4
2017-12-20T09:11:55.226Z,1020.4
2017-12-20T09:12:56.614Z,1020.4
2017-12-20T09:13:58.002Z,1020.4
2017-12-20T09:14:59.391Z,1020.4
2017-12-20T09:16:00.778Z,1020.5
2017-12-20T09:17:02.172Z,1020.5
2017-12-20T09:18:03.595Z,1020.5
2017-12-20T09:19:04.981Z,1020.5
2017-12-20T09:20:06.369Z,1020.5
2017-12-20T09:21:07.768Z,1020.5
2017-12-20T09:22:09.161Z,1020.5
2017-12-20T09:23:10.547Z,1020.6
2017-12-20T09:24:11.939Z,1020.5
2017-12-20T09:25:13.329Z,1020.6
2017-12-20T09:26:14.718Z,1020.5
2017-12-20T09:27:16.109Z,1020.6
2017-12-20T09:28:17.495Z,1020.5
2017-12-20T09:29:18.882Z,1020.5
2017-12-20T09:30:20.270Z,1020.5
2017-12-20T09:31:21.664Z,1020.5
2017-12-20T09:32:23.055Z,1020.5
2017-12-20T09:33:24.444Z,1020.5
2017-12-20T09:34:25.835Z,1020.5
2017-12-20T09:35:27.223Z,1020.5
2017-12-20T09:36:28.612Z,1020.6
2017-12-20T09:37:30.003Z,1020.6
2017-12-20T09:38:31.393Z,1020.6
2017-12-20T09:39:32.783Z,1020.6
2017-12-20T09:40:34.169Z,1020.6
2017-12-20T09:41:35.556Z,1020.7
2017-12-20T09:42:36.944Z,1020.7
2017-12-20T09:43:38.333Z,1020.7
2017-12-20T09:44:39.725Z,1020.7
2017-12-20T09:45:41.116Z,1020.7
2017-12-20T09:46:42.504Z,1020.7
2017-12-20T09:47:43.895Z,1020.8
2017-12-20T09:48:45.283Z,1020.8
2017-12-20T09:49:46.670Z,1020.8
2017-12-20T09:50:48.059Z,1020.8
2017-12-20T09:51:49.448Z,1020.9
2017-12-20T09:52:50.841Z,1020.8
2017-12-20T09:53:52.232Z,1020.8
2017-12-20T09:54:53.620Z,1020.9
2017-12-20T09:55:55.009Z,1020.8
2017-12-20T09:56:56.398Z,1020.8
2017-12-20T09:57:57.785Z,1020.8
2017-12-20T09:58:59.175Z,1020.8
2017-12-20T10:00:00.566Z,1020.9
2017-12-20T10:01:01.958Z,1020.8
2017-12-20T10:02:03.348Z,1020.9
2017-12-20T10:03:04.737Z,1020.8
2017-12-20T10:04:06.124Z,1020.9
2017-12-20T10:05:07.513Z,1020.9
2017-12-20T10:06:08.910Z,1020.9
2017-12-20T10:07:10.342Z,1020.8
2017-12-20T10:08:11.724Z,1020.8
2017-12-20T10:09:13.114Z,1020.8
2017-12-20T10:10:14.504Z,1020.9
2017-12-20T10:11:15.892Z,1020.9
2017-12-20T10:12:17.285Z,1020.9
2017-12-20T10:13:18.673Z,1020.9
2017-12-20T10:14:20.063Z,1020.9
2017-12-20T10:15:21.455Z,1020.8
2017-12-20T10:16:22.843Z,1020.9
2017-12-20T10:17:24.230Z,1020.9
2017-12-20T10:18:25.620Z,1020.9
2017-12-20T10:19:27.008Z,1020.8
2017-12-20T10:20:28.398Z,1020.8
2017-12-20T10:21:29.790Z,1020.8
2017-12-20T10:22:31.177Z,1020.7
2017-12-20T10:23:32.565Z,1020.8
2017-12-20T10:24:33.955Z,1020.8
2017-12-20T10:25:35.343Z,1020.7
2017-12-20T10:26:36.797Z,1020.7
2017-12-20T10:27:38.125Z,1020.7
2017-12-20T10:28:39.516Z,1020.6
2017-12-20T10:29:40.905Z,1020.6
2017-12-20T10:30:42.294Z,1020.7
2017-12-20T10:31:43.684Z,1020.6
2017-12-20T10:32:45.076Z,1020.6
2017-12-20T10:33:46.462Z,1020.6
2017-12-20T10:34:47.852Z,1020.6
2017-12-20T10:35:49.243Z,1020.5
2017-12-20T10:36:50.635Z,1020.6
2017-12-20T10:37:52.021Z,1020.6
2017-12-20T10:38:53.413Z,1020.6
2017-12-20T10:39:54.803Z,1020.5
2017-12-20T10:40:56.202Z,1020.6
2017-12-20T10:41:57.582Z,1020.5
2017-12-20T10:42:58.976Z,1020.5
2017-12-20T10:44:00.368Z,1020.5
2017-12-20T10:45:01.756Z,1020.5
2017-12-20T10:46:03.147Z,1020.5
2017-12-20T10:47:04.537Z,1020.5
2017-12-20T10:48:05.928Z,1020.5
2017-12-20T10:49:07.321Z,1020.5
2017-12-20T10:50:08.712Z,1020.5
2017-12-20T10:51:10.102Z,1020.5
2017-12-20T10:52:11.492Z,1020.5
2017-12-20T10:53:12.877Z,1020.5
2017-12-20T10:54:14.266Z,1020.6
2017-12-20T10:55:15.658Z,1020.6
2017-12-20T10:56:17.072Z,1020.6
2017-12-20T10:57:18.457Z,1020.6
2017-12-20T10:58:19.852Z,1020.6
2017-12-20T10:59:21.237Z,1020.6
2017-12-20T11:00:22.629Z,1020.6
2017-12-20T11:01:24.018Z,1020.7
2017-12-20T11:02:25.408Z,1020.6
2017-12-20T11:03:26.796Z,1020.6
2017-12-20T11:04:28.189Z,1020.7
2017-12-20T11:05:29.578Z,1020.7
2017-12-20T11:06:30.968Z,1020.7
2017-12-20T11:07:32.387Z,1020.7
2017-12-20T11:08:33.777Z,1020.7
2017-12-20T11:09:35.170Z,1020.7
2017-12-20T11:10:36.560Z,1020.7
2017-12-20T11:11:37.954Z,1020.7
2017-12-20T11:12:39.356Z,1020.7
2017-12-20T11:13:40.769Z,1020.7
2017-12-20T11:14:42.260Z,1020.7
2017-12-20T11:15:43.606Z,1020.6
2017-12-20T11:16:44.993Z,1020.7
2017-12-20T11:17:46.383Z,1020.7
2017-12-20T11:18:47.776Z,1020.7
2017-12-20T11:19:49.167Z,1020.7
2017-12-20T11:20:50.554Z,1020.7
2017-12-20T11:21:51.946Z,1020.7
2017-12-20T11:22:53.336Z,1020.7
2017-12-20T11:23:54.721Z,1020.7
2017-12-20T11:24:56.110Z,1020.7
2017-12-20T11:25:57.503Z,1020.7
2017-12-20T11:26:58.894Z,1020.7
2017-12-20T11:28:00.288Z,1020.7
2017-12-20T11:29:01.675Z,1020.6
2017-12-20T11:30:03.063Z,1020.6
2017-12-20T11:31:04.449Z,1020.6
2017-12-20T11:32:05.840Z,1020.7
2017-12-20T11:33:07.232Z,1020.7
2017-12-20T11:34:08.624Z,1020.7
2017-12-20T11:35:10.013Z,1020.6
2017-12-20T11:36:11.402Z,1020.6
2017-12-20T11:37:12.792Z,1020.6
2017-12-20T11:38:14.181Z,1020.6
2017-12-20T11:39:15.574Z,1020.6
2017-12-20T11:40:16.963Z,1020.6
2017-12-20T11:41:18.355Z,1020.5
2017-12-20T11:42:19.751Z,1020.5
2017-12-20T11:43:21.133Z,1020.5
2017-12-20T11:44:22.594Z,1020.5
2017-12-20T11:45:23.992Z,1020.5
2017-12-20T11:46:25.380Z,1020.4
2017-12-20T11:47:26.772Z,1020.4
2017-12-20T11:48:28.163Z,1020.4
2017-12-20T11:49:29.556Z,1020.4
2017-12-20T11:50:30.943Z,1020.4
2017-12-20T11:51:32.336Z,1020.4
2017-12-20T11:52:33.726Z,1020.4
2017-12-20T11:53:35.121Z,1020.4
2017-12-20T11:54:36.511Z,1020.4
2017-12-20T11:55:37.903Z,1020.4
2017-12-20T11:56:39.292Z,1020.3
2017-12-20T11:57:40.682Z,1020.3
2017-12-20T11:58:42.075Z,1020.3
2017-12-20T11:59:43.460Z,1020.3
2017-12-20T12:00:44.854Z,1020.3
2017-12-20T12:01:46.244Z,1020.3
2017-12-20T12:02:47.637Z,1020.3
2017-12-20T12:03:49.029Z,1020.3
2017-12-20T12:04:50.417Z,1020.3
2017-12-20T12:05:51.807Z,1020.3
2017-12-20T12:06:53.197Z,1020.3
2017-12-20T12:07:54.593Z,1020.2
2017-12-20T12:08:55.983Z,1020.2
2017-12-20T12:09:57.379Z,1020.3
2017-12-20T12:10:58.769Z,1020.3
2017-12-20T12:12:00.158Z,1020.3
2017-12-20T12:13:01.551Z,1020.3
2017-12-20T12:14:02.940Z,1020.3
2017-12-20T12:15:04.334Z,1020.2
2017-12-20T12:16:05.727Z,1020.2
2017-12-20T12:17:07.119Z,1020.2
2017-12-20T12:18:08.510Z,1020.2
2017-12-20T12:19:09.900Z,1020.2
2017-12-20T12:20:11.292Z,1020.2
2017-12-20T12:21:12.681Z,1020.2
2017-12-20T12:22:14.074Z,1020.2
2017-12-20T12:23:15.468Z,1020.2
2017-12-20T12:24:16.859Z,1020.2
2017-12-20T12:25:18.249Z,1020.2
2017-12-20T12:26:19.642Z,1020.2
2017-12-20T12:27:21.031Z,1020.2
2017-12-20T12:28:22.417Z,1020.3
2017-12-20T12:29:23.807Z,1020.2
2017-12-20T12:30:25.199Z,1020.2
2017-12-20T12:31:26.590Z,1020.2
2017-12-20T12:32:27.976Z,1020.2
2017-12-20T12:33:29.376Z,1020.2
2017-12-20T12:34:30.768Z,1020.2
2017-12-20T12:35:32.153Z,1020.2
2017-12-20T12:36:33.546Z,1020.1
2017-12-20T12:37:34.935Z,1020.1
2017-12-20T12:38:36.331Z,1020.1
2017-12-20T12:39:37.724Z,1020.1
2017-12-20T12:40:39.116Z,1020.1
2017-12-20T12:41:40.503Z,1020.1
2017-12-20T12:42:41.894Z,1020.1
2017-12-20T12:43:43.284Z,1020.1
2017-12-20T12:44:44.674Z,1020.1
2017-12-20T12:45:46.066Z,1020.2